New Geneva, Pennsylvania
Current Conditions -  °F | °C
As of 11:34 AM on Wednesday 26 Nov 2014 (Local Time) from KMGW Reporting Station
Light Snow Light Snow  
Wind Chill: 34°   Ceiling: 1900
Heat Index: 34°   Visibility: 0.75mi
Dew Point: 30°   Wind: 0mph
Humidity: 85%   Direction: NA
Pressure: 30.05"   Gusts: NA
Location:  39.79°N, 79.91°W
Report Text: KMGW 261634Z 00000KT 3/4SM -SN BR FEW004 OVC019 01/M01 A3005 RMK AO2 UPE01FZRAB01E15SNB15 P0003 I1000 T00111011
Loading
Personal Weather Stations






























Interactive Weather Map New forecast layout! Learn more

10-Day Weather Forecast

Advertisements
Track Severe Weather on mobile